Du har inga inställningar för hoppväder.nu

Hoppväder.nu

Senast uppdaterat 08:29

UTC-tid

2021-05-09 kl. 06:29


Sol och måne

Solen går upp 5:00 och går ner 22:00 (beräknade cirkatider)
Nästa fullmåne blir om 17 dagar (2021-05-26)

METAR

ESMK (Everöd)
(9 minuter sedan)
ESMK 090620Z AUTO 14009KT 6000 BR BKN005/// OVC008/// 07/06 Q1008=



ESMS (Malmö)
(9 minuter sedan)
ESMS 090620Z 15013KT 6000 BKN004 OVC007 07/07 Q1007=



ESMX (Växjö)
(39 minuter sedan)
ESMX 090550Z AUTO 14008KT 090V170 9999 DZ FEW024/// OVC038/// 05/04 Q1009=



ESDF (Ronneby)
(9 minuter sedan)
ESDF 090620Z 15006KT 9999 -RA OVC034 07/06 Q1010=



EKRN (Rønne, Bornholm)
(39 minuter sedan)
EKRN 090550Z AUTO 13012KT 3800 -RA BR OVC007/// 06/06 Q1010=



TAF

ESMK (Everöd)
ESMK



ESMS (Malmö)
(79 minuter sedan)
ESMS 090510Z 0906/1006 17013KT 2500 -RA BKN003 BECMG 0906/0908 CAVOK=



ESMX (Växjö)
ESMX



ESDF (Ronneby)
ESDF



EKRN (Rønne, Bornholm)
(32 minuter sedan)
EKRN AMD 090557Z 0906/0915 15015KT 4000 -RADZ BR BKN007 BECMG 0906/0908 CAVOK=





Kodnycklar till TAF och METAR






LHP

(Everöd är område se11e i Hela Område 1)

Översikt

ÄNDRAD ÖVERSIKT FÖR OMRÅDE se1 UTFÄRDAD 090613

GÄLLANDE DEN 9 MAJ 2021 MELLAN 04 OCH 12 UTC


Väderöversikt
Se väderöversikt för område se2 + se3

Sikt under 5 kilometer eller molnbas under 1000 fot
04-12UTC: I hela området


Måttlig eller svår isbildning
04-12UTC: I hela området


Måttlig eller svår turbulens
Väntas inte förekomma under perioden

Hela Område 1

ÄNDRAD PROGNOS FÖR OMRÅDE se11 UTFÄRDAD 090613
GÄLLANDE DEN 9 MAJ 2021 MELLAN 04 OCH 12 UTC

Måttlig eller svår turbulens
04-12UTC: I hela området: Väntas inte förekomma under perioden

Måttlig eller svår isbildning
04-06UTC: Område se11c,se11g: måttlig isbildning FL070 - > FL125
Område se11a,se11e,se11d,se11b,se11i,se11h,se11f: måttlig isbildning FL070 - > FL125, måttlig isbildning 4000ft - > FL125

06-08UTC: Område se11a,se11e,se11d,se11c,se11b,se11i,se11h,se11f: måttlig isbildning FL065 - > FL125
Område se11g: måttlig isbildning FL070 - FL120, måttlig isbildning FL065 - > FL125

08-10UTC: Område se11c,se11g: måttlig isbildning FL080 - > FL125
Område se11a,se11e,se11d,se11b,se11i,se11h,se11f: måttlig isbildning FL080 - > FL125, måttlig isbildning FL070 - > FL125

10-12UTC: Område se11a,se11e,se11d: måttlig isbildning FL080 - FL120, måttlig isbildning FL070 - > FL125
Område se11c,se11b,se11i,se11h,se11g,se11f: måttlig isbildning FL080 - FL120


Sikt/Väder/Moln
04-06UTC: Område se11g: Sikt >8km i regn, lokalt 3km - 5km i dis. Molnbas 1500ft - 2000ft, lokalt 500ft - 1000ft.

04-08UTC: Område se11a,se11e,se11d,se11c,se11b,se11i,se11h,se11f: Sikt >8km i regn, lokalt 3km - 5km i dis. Molnbas 1500ft - 2000ft, lokalt 500ft - 1000ft.

06-08UTC: Område se11g: Sikt 3km - >8km i dis, regn. Molnbas 500ft - >4000ft.

08-10UTC: Område se11a,se11e,se11d,se11b,se11i,se11h,se11f: Sikt 3km - >8km i regn. Molnbas 500ft - >4000ft.

08-12UTC: Område se11c,se11g: Sikt >8km. Molnbas >4000ft, lokalt 2000ft - 4000ft.

10-12UTC: Område se11b,se11i,se11h,se11f: Sikt >8km. Molnbas >4000ft, lokalt 2000ft - 4000ft.
Område se11a,se11e,se11d: Sikt 3km - >8km i dis, regn. Molnbas 500ft - >4000ft.


Molnöversida
04-08UTC: Område se11c,se11g: Molnöversida > FL125.

04-10UTC: Område se11b,se11i,se11h,se11f: Molnöversida > FL125.

04-12UTC: Område se11a,se11e,se11d: Molnöversida > FL125.

08-12UTC: Område se11c,se11g: Molnöversida FL120.

10-12UTC: Område se11b,se11i,se11h,se11f: Molnöversida FL120.


CB/TCU Moln
04-12UTC: I hela området: Väntas inte förekomma under perioden

Nollgradersisoterm
04-06UTC: Noll grader 4000ft - FL095.
06-08UTC: Noll grader FL065 - FL100.
08-12UTC: Noll grader FL070 - FL100.

Vind vid marken
04-06UTC: Område se11f: SO-S/7-22 knop, byar upp till 30 knop.
Område se11h: SO-S/9-22 knop, byar upp till 30 knop.
Område se11c: SO-S/11-24 knop, byar upp till 34 knop.
Område se11d: SO-S/7-24 knop, byar upp till 31 knop.
Område se11a: SO/7-29 knop, byar upp till 37 knop.
Område se11i: SO-S/8-24 knop, byar upp till 31 knop.
Område se11g: SO-S/15-25 knop, byar upp till 33 knop.
Område se11e: SO-S/5-16 knop, byar upp till 25 knop.
Område se11b: SO-S/16-28 knop, byar upp till 36 knop.

06-08UTC: Område se11d: SO-S/6-23 knop, byar upp till 32 knop.
Område se11e: SO-S/4-16 knop, byar upp till 27 knop.
Område se11b: SO-S/14-26 knop, byar upp till 34 knop.
Område se11f: SO-S/6-21 knop, byar upp till 29 knop.
Område se11g: S/10-24 knop, byar upp till 31 knop.
Område se11i: SO-S/8-24 knop, byar upp till 34 knop.
Område se11a: SO-S/6-27 knop, byar upp till 37 knop.
Område se11h: SO-S/6-24 knop, byar upp till 33 knop.
Område se11c: SO-S/9-21 knop, byar upp till 30 knop.

08-10UTC: Område se11f: S/5-13 knop, byar upp till 28 knop.
Område se11e: S/4-14 knop, byar upp till 24 knop.
Område se11d: S/6-21 knop, byar upp till 34 knop.
Område se11a: SO-S/6-25 knop, byar upp till 33 knop.
Område se11h: S/8-22 knop, byar upp till 30 knop.
Område se11b: SO-S/12-23 knop, byar upp till 31 knop.
Område se11i: S/8-22 knop, byar upp till 34 knop.
Område se11c: S/8-17 knop, byar upp till 28 knop.
Område se11g: S/4-18 knop, byar upp till 25 knop.

10-12UTC: Område se11b: SO-S/10-19 knop, byar upp till 26 knop.
Område se11h: S/4-19 knop, byar upp till 26 knop.
Område se11c: S/7-17 knop, byar upp till 22 knop.
Område se11g: S/2-17 knop, byar upp till 21 knop.
Område se11d: S/5-17 knop, byar upp till 28 knop.
Område se11f: S/4-12 knop, byar upp till 24 knop.
Område se11a: SO-S/5-23 knop, byar upp till 32 knop.
Område se11e: S/4-8 knop, byar upp till 20 knop.
Område se11i: S/4-18 knop, byar upp till 27 knop.


Genomsnittlig vind och temperatur för området
2000ft:
04-06UTC: 190/36kt +4.
06-08UTC: 220/28kt +6.
08-10UTC: 230/22kt +9.
10-12UTC: 230/24kt +11.

FL50:
04-06UTC: 230/23kt +2.
06-08UTC: 260/32kt +5.
08-10UTC: 250/30kt +6.
10-12UTC: 230/29kt +5.

FL100:
04-06UTC: 270/39kt -3.
06-08UTC: 260/38kt -3.
08-10UTC: 260/35kt -2.
10-12UTC: 260/35kt -1.

Lägsta QNH
1003 hPa.

OBS! endast utbredd måttlig eller svår isbildning och turbulens prognostiseras i LLF.
Avsaknad av isbildning och turbulens i prognosen utesluter inte förekomst av lätt isbildning och turbulens.
För indikation på lätt isbildning, var vänlig kontrollera om prognosen för molntopp ligger högre än nollgradersisotermen.
Förekomst av TCU eller CB medför alltid en risk för måttlig eller svår isbildning och turbulens även om det inte framgår explicit av prognosen.







Spotting

Hur fungerar spotthjälpen och Vindkartan?

Markvind är ca 2-8 m/s med byar på 14 m/s.
Vind på 600 m ca 14 m/s.
Vind på 1500 m ca 16 m/s.
Vind på 3000 m ca 20 m/s.
KalleDavid flyger ca 24 m/s över marken på finalen.
Du driver ca 880 m bakåt i frifall. (1173 m)
Lämplig spot är 24 sekunder eller 580 m efter gropen.
(37 s eller 895 m)
För små grupper eller ensamhoppare bör man vänta 6-9 sekunder mellan grupperna.
För större grupper bör man vänta 12-15 sekunder mellan grupperna.


Vindkartan

Senast uppdaterad 08:29




All data kommer från LFV.se